sensor_id;sensor_type;location;lat;lon;timestamp;pressure;altitude;pressure_sealevel;temperature;humidity
3434;BME280;1730;41.932;25.548;2023-04-07T00:00:52;98849.59;;;8.03;81.72
3434;BME280;1730;41.932;25.548;2023-04-07T00:03:17;98828.38;;;7.83;82.19
3434;BME280;1730;41.932;25.548;2023-04-07T00:05:43;98736.31;;;7.28;82.49
3434;BME280;1730;41.932;25.548;2023-04-07T00:08:09;98832.94;;;8.00;82.28
3434;BME280;1730;41.932;25.548;2023-04-07T00:10:34;98866.16;;;7.99;83.07
3434;BME280;1730;41.932;25.548;2023-04-07T00:13:00;98565.38;;;6.30;82.68
3434;BME280;1730;41.932;25.548;2023-04-07T00:15:26;98731.59;;;7.39;82.54
3434;BME280;1730;41.932;25.548;2023-04-07T00:17:52;98724.94;;;7.43;82.39
3434;BME280;1730;41.932;25.548;2023-04-07T00:20:18;98857.94;;;8.28;81.66
3434;BME280;1730;41.932;25.548;2023-04-07T00:22:44;98852.00;;;8.06;81.31
3434;BME280;1730;41.932;25.548;2023-04-07T00:25:09;98659.44;;;6.91;81.42
3434;BME280;1730;41.932;25.548;2023-04-07T00:27:35;98482.97;;;5.97;79.54
3434;BME280;1730;41.932;25.548;2023-04-07T00:30:01;98852.50;;;8.20;80.49
3434;BME280;1730;41.932;25.548;2023-04-07T00:32:27;98322.97;;;4.89;79.96
3434;BME280;1730;41.932;25.548;2023-04-07T00:34:52;98479.75;;;5.83;78.14
3434;BME280;1730;41.932;25.548;2023-04-07T00:37:18;98595.59;;;6.50;78.75
3434;BME280;1730;41.932;25.548;2023-04-07T00:39:44;98799.31;;;7.78;78.55
3434;BME280;1730;41.932;25.548;2023-04-07T00:42:09;98370.13;;;5.27;77.28
3434;BME280;1730;41.932;25.548;2023-04-07T00:44:35;98372.69;;;5.10;77.80
3434;BME280;1730;41.932;25.548;2023-04-07T00:47:01;98400.63;;;5.34;77.82
3434;BME280;1730;41.932;25.548;2023-04-07T00:49:27;98814.56;;;7.78;78.29
3434;BME280;1730;41.932;25.548;2023-04-07T00:51:59;98873.72;;;8.13;77.98
3434;BME280;1730;41.932;25.548;2023-04-07T00:54:26;98867.94;;;8.08;78.72
3434;BME280;1730;41.932;25.548;2023-04-07T00:56:52;98795.63;;;7.52;78.73
3434;BME280;1730;41.932;25.548;2023-04-07T00:59:18;98863.50;;;8.16;77.91
3434;BME280;1730;41.932;25.548;2023-04-07T01:04:35;98882.72;;;8.22;76.93
3434;BME280;1730;41.932;25.548;2023-04-07T01:07:10;98862.12;;;8.12;75.41
3434;BME280;1730;41.932;25.548;2023-04-07T01:09:41;98882.38;;;8.07;75.20
3434;BME280;1730;41.932;25.548;2023-04-07T01:12:17;98750.91;;;7.43;73.78
3434;BME280;1730;41.932;25.548;2023-04-07T01:14:54;98869.09;;;8.05;72.15
3434;BME280;1730;41.932;25.548;2023-04-07T01:17:24;98855.91;;;8.12;72.97
3434;BME280;1730;41.932;25.548;2023-04-07T01:20:18;98837.19;;;8.02;71.86
3434;BME280;1730;41.932;25.548;2023-04-07T01:22:46;98863.38;;;8.18;71.83
3434;BME280;1730;41.932;25.548;2023-04-07T01:25:26;98862.53;;;8.18;72.40
3434;BME280;1730;41.932;25.548;2023-04-07T01:30:34;98892.31;;;8.24;72.96
3434;BME280;1730;41.932;25.548;2023-04-07T01:33:03;98873.63;;;8.05;74.23
3434;BME280;1730;41.932;25.548;2023-04-07T01:35:32;98881.00;;;8.03;74.07
3434;BME280;1730;41.932;25.548;2023-04-07T01:37:59;98764.09;;;7.36;74.46
3434;BME280;1730;41.932;25.548;2023-04-07T01:40:26;98891.91;;;8.19;75.67
3434;BME280;1730;41.932;25.548;2023-04-07T01:42:53;98884.72;;;8.20;74.56
3434;BME280;1730;41.932;25.548;2023-04-07T01:45:21;98854.28;;;8.01;75.30
3434;BME280;1730;41.932;25.548;2023-04-07T01:47:47;98828.66;;;7.89;75.46
3434;BME280;1730;41.932;25.548;2023-04-07T01:50:13;98745.44;;;7.35;77.42
3434;BME280;1730;41.932;25.548;2023-04-07T01:52:40;98891.66;;;8.12;78.87
3434;BME280;1730;41.932;25.548;2023-04-07T01:55:06;98887.63;;;8.26;79.12
3434;BME280;1730;41.932;25.548;2023-04-07T01:57:32;98891.59;;;8.32;77.81
3434;BME280;1730;41.932;25.548;2023-04-07T01:59:58;98760.91;;;7.50;77.17
3434;BME280;1730;41.932;25.548;2023-04-07T02:02:23;98702.44;;;6.99;77.36
3434;BME280;1730;41.932;25.548;2023-04-07T02:04:57;98895.72;;;8.16;78.60
3434;BME280;1730;41.932;25.548;2023-04-07T02:07:41;98893.81;;;8.36;76.69
3434;BME280;1730;41.932;25.548;2023-04-07T02:10:12;98893.00;;;8.26;75.92
3434;BME280;1730;41.932;25.548;2023-04-07T02:12:39;98582.41;;;6.39;76.89
3434;BME280;1730;41.932;25.548;2023-04-07T02:15:08;98887.97;;;8.13;76.99
3434;BME280;1730;41.932;25.548;2023-04-07T02:17:35;98887.06;;;8.32;76.73
3434;BME280;1730;41.932;25.548;2023-04-07T02:20:07;98884.47;;;8.40;76.17
3434;BME280;1730;41.932;25.548;2023-04-07T02:22:34;98912.09;;;8.33;76.66
3434;BME280;1730;41.932;25.548;2023-04-07T02:25:00;98895.59;;;8.18;76.51
3434;BME280;1730;41.932;25.548;2023-04-07T02:27:26;98897.28;;;8.19;78.02
3434;BME280;1730;41.932;25.548;2023-04-07T02:29:52;98845.59;;;7.90;78.12
3434;BME280;1730;41.932;25.548;2023-04-07T02:32:18;98894.97;;;8.06;79.53
3434;BME280;1730;41.932;25.548;2023-04-07T02:34:43;98899.12;;;8.19;78.74
3434;BME280;1730;41.932;25.548;2023-04-07T02:37:09;98718.94;;;6.95;78.81
3434;BME280;1730;41.932;25.548;2023-04-07T02:39:35;98900.06;;;8.27;79.40
3434;BME280;1730;41.932;25.548;2023-04-07T02:42:00;98894.84;;;8.26;76.23
3434;BME280;1730;41.932;25.548;2023-04-07T02:44:26;98916.63;;;8.32;77.42
3434;BME280;1730;41.932;25.548;2023-04-07T02:46:51;98899.66;;;8.32;78.00
3434;BME280;1730;41.932;25.548;2023-04-07T02:49:16;98924.00;;;8.48;78.01
3434;BME280;1730;41.932;25.548;2023-04-07T02:51:42;98902.63;;;8.29;76.54
3434;BME280;1730;41.932;25.548;2023-04-07T02:54:07;98906.44;;;8.26;78.09
3434;BME280;1730;41.932;25.548;2023-04-07T02:56:33;98610.06;;;6.66;77.21
3434;BME280;1730;41.932;25.548;2023-04-07T02:58:59;98803.72;;;7.69;76.16
3434;BME280;1730;41.932;25.548;2023-04-07T03:01:24;98898.72;;;8.13;77.05
3434;BME280;1730;41.932;25.548;2023-04-07T03:03:50;98868.47;;;7.94;76.93
3434;BME280;1730;41.932;25.548;2023-04-07T03:06:15;98859.84;;;7.90;76.42
3434;BME280;1730;41.932;25.548;2023-04-07T03:08:41;98902.13;;;8.15;76.21
3434;BME280;1730;41.932;25.548;2023-04-07T03:11:06;98902.00;;;8.07;75.47
3434;BME280;1730;41.932;25.548;2023-04-07T03:13:32;98859.50;;;7.76;76.83
3434;BME280;1730;41.932;25.548;2023-04-07T03:15:57;98910.47;;;8.12;77.05
3434;BME280;1730;41.932;25.548;2023-04-07T03:18:23;98909.09;;;7.99;76.85
3434;BME280;1730;41.932;25.548;2023-04-07T03:20:48;98907.22;;;8.09;77.85
3434;BME280;1730;41.932;25.548;2023-04-07T03:23:14;98910.00;;;8.17;75.73
3434;BME280;1730;41.932;25.548;2023-04-07T03:25:40;98910.09;;;8.35;74.35
3434;BME280;1730;41.932;25.548;2023-04-07T03:28:05;98806.50;;;7.50;73.63
3434;BME280;1730;41.932;25.548;2023-04-07T03:30:31;98919.44;;;8.21;74.61
3434;BME280;1730;41.932;25.548;2023-04-07T03:32:58;98730.19;;;7.08;74.23
3434;BME280;1730;41.932;25.548;2023-04-07T03:35:24;98910.56;;;7.93;75.08
3434;BME280;1730;41.932;25.548;2023-04-07T03:37:51;98908.00;;;7.92;75.02
3434;BME280;1730;41.932;25.548;2023-04-07T03:40:17;98597.72;;;5.90;75.03
3434;BME280;1730;41.932;25.548;2023-04-07T03:42:45;98905.53;;;7.81;76.49
3434;BME280;1730;41.932;25.548;2023-04-07T03:45:11;98916.72;;;7.76;75.73
3434;BME280;1730;41.932;25.548;2023-04-07T03:47:36;98926.19;;;7.70;77.66
3434;BME280;1730;41.932;25.548;2023-04-07T03:50:02;98923.47;;;7.80;78.27
3434;BME280;1730;41.932;25.548;2023-04-07T03:52:27;98941.44;;;7.70;77.96
3434;BME280;1730;41.932;25.548;2023-04-07T03:54:53;98807.25;;;6.96;78.24
3434;BME280;1730;41.932;25.548;2023-04-07T03:57:18;98932.41;;;7.71;78.35
3434;BME280;1730;41.932;25.548;2023-04-07T03:59:44;98811.63;;;6.97;77.30
3434;BME280;1730;41.932;25.548;2023-04-07T04:02:13;98762.28;;;6.80;77.33
3434;BME280;1730;41.932;25.548;2023-04-07T04:04:38;98941.44;;;7.70;79.23
3434;BME280;1730;41.932;25.548;2023-04-07T04:07:04;98802.47;;;6.90;78.68
3434;BME280;1730;41.932;25.548;2023-04-07T04:09:30;98944.28;;;7.59;79.68
3434;BME280;1730;41.932;25.548;2023-04-07T04:11:56;98900.56;;;7.30;80.38
3434;BME280;1730;41.932;25.548;2023-04-07T04:14:22;98946.66;;;7.72;80.10
3434;BME280;1730;41.932;25.548;2023-04-07T04:16:48;98793.19;;;6.75;79.81
3434;BME280;1730;41.932;25.548;2023-04-07T04:19:13;98948.75;;;7.68;79.38
3434;BME280;1730;41.932;25.548;2023-04-07T04:21:39;98953.56;;;7.74;77.80
3434;BME280;1730;41.932;25.548;2023-04-07T04:24:04;98771.75;;;6.75;77.04
3434;BME280;1730;41.932;25.548;2023-04-07T04:26:30;98962.25;;;7.95;76.25
3434;BME280;1730;41.932;25.548;2023-04-07T04:28:56;98959.00;;;8.01;75.85
3434;BME280;1730;41.932;25.548;2023-04-07T04:31:21;98963.81;;;8.35;74.22
3434;BME280;1730;41.932;25.548;2023-04-07T04:33:47;98960.31;;;8.25;74.06
3434;BME280;1730;41.932;25.548;2023-04-07T04:36:12;98965.78;;;8.42;73.42
3434;BME280;1730;41.932;25.548;2023-04-07T04:38:38;98959.38;;;8.16;73.74
3434;BME280;1730;41.932;25.548;2023-04-07T04:41:03;98661.44;;;6.43;73.82
3434;BME280;1730;41.932;25.548;2023-04-07T04:43:29;98963.69;;;8.27;73.63
3434;BME280;1730;41.932;25.548;2023-04-07T04:45:55;98918.59;;;8.21;72.37
3434;BME280;1730;41.932;25.548;2023-04-07T04:48:21;98972.63;;;8.54;70.59
3434;BME280;1730;41.932;25.548;2023-04-07T04:50:46;98967.69;;;8.50;69.51
3434;BME280;1730;41.932;25.548;2023-04-07T04:53:12;98969.12;;;8.44;69.99
3434;BME280;1730;41.932;25.548;2023-04-07T04:55:37;98953.88;;;8.45;69.46
3434;BME280;1730;41.932;25.548;2023-04-07T04:58:06;98978.69;;;8.56;69.18
3434;BME280;1730;41.932;25.548;2023-04-07T05:00:32;98977.09;;;8.36;69.76
3434;BME280;1730;41.932;25.548;2023-04-07T05:02:57;98978.81;;;8.28;70.16
3434;BME280;1730;41.932;25.548;2023-04-07T05:05:24;98930.12;;;8.03;70.49
3434;BME280;1730;41.932;25.548;2023-04-07T05:07:50;98994.22;;;8.26;68.91
3434;BME280;1730;41.932;25.548;2023-04-07T05:10:16;98838.25;;;7.55;70.86
3434;BME280;1730;41.932;25.548;2023-04-07T05:12:41;98942.78;;;8.21;69.28
3434;BME280;1730;41.932;25.548;2023-04-07T05:15:07;98987.53;;;8.67;68.93
3434;BME280;1730;41.932;25.548;2023-04-07T05:17:33;98824.25;;;7.61;69.13
3434;BME280;1730;41.932;25.548;2023-04-07T05:19:58;98995.09;;;8.53;69.42
3434;BME280;1730;41.932;25.548;2023-04-07T05:22:24;98997.34;;;8.58;68.58
3434;BME280;1730;41.932;25.548;2023-04-07T05:24:49;99002.72;;;8.58;68.48
3434;BME280;1730;41.932;25.548;2023-04-07T05:27:15;98916.19;;;8.27;67.78
3434;BME280;1730;41.932;25.548;2023-04-07T05:29:40;99009.31;;;9.09;66.56
3434;BME280;1730;41.932;25.548;2023-04-07T05:32:06;98987.41;;;8.68;66.85
3434;BME280;1730;41.932;25.548;2023-04-07T05:34:31;99017.09;;;8.94;65.26
3434;BME280;1730;41.932;25.548;2023-04-07T05:36:57;98865.44;;;8.06;63.46
3434;BME280;1730;41.932;25.548;2023-04-07T05:39:22;99011.84;;;8.92;64.53
3434;BME280;1730;41.932;25.548;2023-04-07T05:41:48;98848.38;;;7.98;65.12
3434;BME280;1730;41.932;25.548;2023-04-07T05:44:14;99013.00;;;8.90;64.45
3434;BME280;1730;41.932;25.548;2023-04-07T05:46:40;99025.09;;;9.03;64.51
3434;BME280;1730;41.932;25.548;2023-04-07T05:49:05;99009.25;;;9.00;63.25
3434;BME280;1730;41.932;25.548;2023-04-07T05:51:31;99007.34;;;9.11;62.98
3434;BME280;1730;41.932;25.548;2023-04-07T05:54:00;98990.13;;;9.03;61.75
3434;BME280;1730;41.932;25.548;2023-04-07T05:56:26;98900.94;;;8.73;60.59
3434;BME280;1730;41.932;25.548;2023-04-07T05:58:52;99016.25;;;9.64;60.02
3434;BME280;1730;41.932;25.548;2023-04-07T06:01:18;98717.91;;;7.87;59.57
3434;BME280;1730;41.932;25.548;2023-04-07T06:03:43;99013.47;;;9.74;60.15
3434;BME280;1730;41.932;25.548;2023-04-07T06:06:09;99020.44;;;9.84;58.71
3434;BME280;1730;41.932;25.548;2023-04-07T06:08:36;99017.69;;;10.02;58.32
3434;BME280;1730;41.932;25.548;2023-04-07T06:11:01;99014.19;;;9.84;57.92
3434;BME280;1730;41.932;25.548;2023-04-07T06:13:27;99017.44;;;10.13;57.78
3434;BME280;1730;41.932;25.548;2023-04-07T06:15:54;98842.31;;;8.94;57.74
3434;BME280;1730;41.932;25.548;2023-04-07T06:18:20;98966.13;;;9.45;57.33
3434;BME280;1730;41.932;25.548;2023-04-07T06:20:46;99016.91;;;10.10;56.42
3434;BME280;1730;41.932;25.548;2023-04-07T06:23:11;98891.00;;;9.52;55.62
3434;BME280;1730;41.932;25.548;2023-04-07T06:25:37;98767.66;;;8.88;55.76
3434;BME280;1730;41.932;25.548;2023-04-07T06:28:02;99024.28;;;10.59;55.87
3434;BME280;1730;41.932;25.548;2023-04-07T06:30:28;99025.13;;;10.60;56.15
3434;BME280;1730;41.932;25.548;2023-04-07T06:32:54;99022.31;;;10.35;55.09
3434;BME280;1730;41.932;25.548;2023-04-07T06:35:20;98735.81;;;8.32;54.51
3434;BME280;1730;41.932;25.548;2023-04-07T06:37:45;98857.06;;;9.33;53.82
3434;BME280;1730;41.932;25.548;2023-04-07T06:40:12;99032.91;;;10.71;53.32
3434;BME280;1730;41.932;25.548;2023-04-07T06:42:38;99027.81;;;10.60;52.05
3434;BME280;1730;41.932;25.548;2023-04-07T06:45:04;99040.63;;;10.32;52.55
3434;BME280;1730;41.932;25.548;2023-04-07T06:47:30;99037.66;;;10.35;51.83
3434;BME280;1730;41.932;25.548;2023-04-07T06:49:56;99010.63;;;10.53;52.09
3434;BME280;1730;41.932;25.548;2023-04-07T06:52:21;99049.88;;;10.97;52.47
3434;BME280;1730;41.932;25.548;2023-04-07T06:54:47;99046.28;;;10.80;51.75
3434;BME280;1730;41.932;25.548;2023-04-07T06:57:12;99053.03;;;10.84;51.61
3434;BME280;1730;41.932;25.548;2023-04-07T06:59:38;99048.87;;;11.06;50.96
3434;BME280;1730;41.932;25.548;2023-04-07T07:02:04;98907.91;;;10.22;50.38
3434;BME280;1730;41.932;25.548;2023-04-07T07:04:32;99026.81;;;11.11;50.65
3434;BME280;1730;41.932;25.548;2023-04-07T07:06:58;99053.25;;;10.91;50.77
3434;BME280;1730;41.932;25.548;2023-04-07T07:09:24;99044.16;;;10.58;50.04
3434;BME280;1730;41.932;25.548;2023-04-07T07:11:52;98951.38;;;10.09;50.36
3434;BME280;1730;41.932;25.548;2023-04-07T07:14:17;99056.03;;;10.39;51.03
3434;BME280;1730;41.932;25.548;2023-04-07T07:16:43;99051.97;;;10.35;50.76
3434;BME280;1730;41.932;25.548;2023-04-07T07:19:08;99065.41;;;10.61;50.75
3434;BME280;1730;41.932;25.548;2023-04-07T07:21:34;98956.03;;;9.65;50.73
3434;BME280;1730;41.932;25.548;2023-04-07T07:24:00;99093.25;;;10.18;50.13
3434;BME280;1730;41.932;25.548;2023-04-07T07:26:26;99066.44;;;10.34;50.22
3434;BME280;1730;41.932;25.548;2023-04-07T07:28:51;99078.53;;;10.56;50.54
3434;BME280;1730;41.932;25.548;2023-04-07T07:31:18;99098.50;;;10.79;50.30
3434;BME280;1730;41.932;25.548;2023-04-07T07:33:43;99086.72;;;10.80;50.66
3434;BME280;1730;41.932;25.548;2023-04-07T07:36:11;99081.13;;;10.66;50.76
3434;BME280;1730;41.932;25.548;2023-04-07T07:38:41;99092.59;;;10.76;50.54
3434;BME280;1730;41.932;25.548;2023-04-07T07:41:08;99082.34;;;10.79;50.49
3434;BME280;1730;41.932;25.548;2023-04-07T07:43:33;98963.56;;;10.13;51.11
3434;BME280;1730;41.932;25.548;2023-04-07T07:46:01;99096.22;;;10.59;51.02
3434;BME280;1730;41.932;25.548;2023-04-07T07:48:27;99109.87;;;10.57;51.22
3434;BME280;1730;41.932;25.548;2023-04-07T07:50:53;98834.78;;;9.23;51.37
3434;BME280;1730;41.932;25.548;2023-04-07T07:53:21;98952.75;;;9.79;51.54
3434;BME280;1730;41.932;25.548;2023-04-07T07:55:46;99103.28;;;10.85;51.48
3434;BME280;1730;41.932;25.548;2023-04-07T07:58:12;98965.91;;;9.82;51.44
3434;BME280;1730;41.932;25.548;2023-04-07T08:00:38;99105.41;;;10.74;52.15
3434;BME280;1730;41.932;25.548;2023-04-07T08:03:03;99007.28;;;10.67;51.62
3434;BME280;1730;41.932;25.548;2023-04-07T08:05:30;99005.78;;;10.72;50.30
3434;BME280;1730;41.932;25.548;2023-04-07T08:07:57;99111.91;;;11.31;51.08
3434;BME280;1730;41.932;25.548;2023-04-07T08:10:23;99115.44;;;11.32;50.87
3434;BME280;1730;41.932;25.548;2023-04-07T08:12:50;99104.09;;;11.20;50.81
3434;BME280;1730;41.932;25.548;2023-04-07T08:15:15;98949.94;;;10.49;50.45
3434;BME280;1730;41.932;25.548;2023-04-07T08:17:41;99107.00;;;11.35;49.81
3434;BME280;1730;41.932;25.548;2023-04-07T08:20:08;99107.72;;;11.53;48.98
3434;BME280;1730;41.932;25.548;2023-04-07T08:22:35;98989.94;;;10.69;49.25
3434;BME280;1730;41.932;25.548;2023-04-07T08:25:01;99063.47;;;11.38;49.74
3434;BME280;1730;41.932;25.548;2023-04-07T08:27:27;99080.47;;;11.80;49.70
3434;BME280;1730;41.932;25.548;2023-04-07T08:29:58;99112.81;;;12.61;48.42
3434;BME280;1730;41.932;25.548;2023-04-07T08:32:24;99140.94;;;13.15;47.29
3434;BME280;1730;41.932;25.548;2023-04-07T08:34:50;99091.88;;;12.47;47.80
3434;BME280;1730;41.932;25.548;2023-04-07T08:37:15;99127.56;;;12.34;47.24
3434;BME280;1730;41.932;25.548;2023-04-07T08:39:41;98893.44;;;11.05;47.63
3434;BME280;1730;41.932;25.548;2023-04-07T08:42:07;99101.03;;;12.46;47.21
3434;BME280;1730;41.932;25.548;2023-04-07T08:44:35;98892.19;;;11.64;46.27
3434;BME280;1730;41.932;25.548;2023-04-07T08:47:03;99103.63;;;13.33;45.41
3434;BME280;1730;41.932;25.548;2023-04-07T08:49:32;98884.66;;;11.44;44.59
3434;BME280;1730;41.932;25.548;2023-04-07T08:52:04;99102.69;;;13.18;44.00
3434;BME280;1730;41.932;25.548;2023-04-07T08:54:31;99030.81;;;13.61;42.99
3434;BME280;1730;41.932;25.548;2023-04-07T08:56:58;99094.66;;;13.64;41.51
3434;BME280;1730;41.932;25.548;2023-04-07T08:59:25;99065.19;;;14.06;42.40
3434;BME280;1730;41.932;25.548;2023-04-07T09:01:53;99093.37;;;14.42;42.04
3434;BME280;1730;41.932;25.548;2023-04-07T09:04:19;99093.91;;;14.15;42.03
3434;BME280;1730;41.932;25.548;2023-04-07T09:06:48;99101.69;;;14.18;42.03
3434;BME280;1730;41.932;25.548;2023-04-07T09:09:13;99089.50;;;14.14;42.08
3434;BME280;1730;41.932;25.548;2023-04-07T09:11:40;99095.31;;;13.88;42.19
3434;BME280;1730;41.932;25.548;2023-04-07T09:14:08;99091.31;;;14.22;42.01
3434;BME280;1730;41.932;25.548;2023-04-07T09:16:34;99071.28;;;14.46;41.89
3434;BME280;1730;41.932;25.548;2023-04-07T09:19:00;99096.84;;;15.24;41.49
3434;BME280;1730;41.932;25.548;2023-04-07T09:21:25;99006.91;;;15.19;40.35
3434;BME280;1730;41.932;25.548;2023-04-07T09:23:54;99085.84;;;15.62;40.51
3434;BME280;1730;41.932;25.548;2023-04-07T09:26:24;99034.09;;;15.19;40.92
3434;BME280;1730;41.932;25.548;2023-04-07T09:28:57;99084.25;;;15.38;40.41
3434;BME280;1730;41.932;25.548;2023-04-07T09:31:56;99084.94;;;15.11;41.63
3434;BME280;1730;41.932;25.548;2023-04-07T09:34:37;99037.69;;;14.61;41.22
3434;BME280;1730;41.932;25.548;2023-04-07T09:37:05;99077.13;;;15.52;41.12
3434;BME280;1730;41.932;25.548;2023-04-07T09:39:31;99078.03;;;14.27;41.91
3434;BME280;1730;41.932;25.548;2023-04-07T09:41:58;98824.03;;;13.08;42.57
3434;BME280;1730;41.932;25.548;2023-04-07T09:44:38;99102.19;;;14.88;42.29
3434;BME280;1730;41.932;25.548;2023-04-07T09:47:05;99071.41;;;14.52;42.51
3434;BME280;1730;41.932;25.548;2023-04-07T09:49:31;99072.63;;;14.64;42.88
3434;BME280;1730;41.932;25.548;2023-04-07T09:54:32;99082.97;;;15.19;42.80
3434;BME280;1730;41.932;25.548;2023-04-07T09:57:01;99080.53;;;15.24;42.37
3434;BME280;1730;41.932;25.548;2023-04-07T09:59:28;99073.28;;;14.96;42.32
3434;BME280;1730;41.932;25.548;2023-04-07T10:01:55;99067.38;;;14.77;42.78
3434;BME280;1730;41.932;25.548;2023-04-07T10:04:21;99071.53;;;14.36;43.69
3434;BME280;1730;41.932;25.548;2023-04-07T10:06:47;99067.06;;;15.16;42.30
3434;BME280;1730;41.932;25.548;2023-04-07T10:09:13;98833.19;;;13.30;42.83
3434;BME280;1730;41.932;25.548;2023-04-07T10:11:42;99066.28;;;14.34;43.41
3434;BME280;1730;41.932;25.548;2023-04-07T10:14:09;99081.00;;;14.17;44.07
3434;BME280;1730;41.932;25.548;2023-04-07T10:16:37;98968.69;;;13.97;43.88
3434;BME280;1730;41.932;25.548;2023-04-07T10:19:03;99073.94;;;14.83;43.86
3434;BME280;1730;41.932;25.548;2023-04-07T10:21:31;99056.94;;;15.25;43.83
3434;BME280;1730;41.932;25.548;2023-04-07T10:26:58;99066.72;;;15.98;42.81
3434;BME280;1730;41.932;25.548;2023-04-07T10:29:30;99052.78;;;15.44;43.11
3434;BME280;1730;41.932;25.548;2023-04-07T10:32:00;99060.38;;;15.33;43.30
3434;BME280;1730;41.932;25.548;2023-04-07T10:37:21;99059.59;;;15.54;42.48
3434;BME280;1730;41.932;25.548;2023-04-07T10:42:44;99060.53;;;14.52;44.72
3434;BME280;1730;41.932;25.548;2023-04-07T10:45:12;99059.59;;;14.60;44.79
3434;BME280;1730;41.932;25.548;2023-04-07T10:50:23;99055.00;;;15.40;43.78
3434;BME280;1730;41.932;25.548;2023-04-07T10:53:13;99057.16;;;14.79;44.86
3434;BME280;1730;41.932;25.548;2023-04-07T10:55:40;99042.00;;;14.85;44.87
3434;BME280;1730;41.932;25.548;2023-04-07T10:58:23;99050.53;;;16.11;43.59
3434;BME280;1730;41.932;25.548;2023-04-07T11:03:39;99049.84;;;15.60;44.67
3434;BME280;1730;41.932;25.548;2023-04-07T11:06:09;99045.78;;;15.20;44.95
3434;BME280;1730;41.932;25.548;2023-04-07T11:08:39;98947.56;;;14.22;45.50
3434;BME280;1730;41.932;25.548;2023-04-07T11:11:07;99054.25;;;14.66;46.16
3434;BME280;1730;41.932;25.548;2023-04-07T11:16:09;99051.97;;;15.14;45.81
3434;BME280;1730;41.932;25.548;2023-04-07T11:18:36;98994.59;;;14.52;46.21
3434;BME280;1730;41.932;25.548;2023-04-07T11:21:02;99038.53;;;14.76;46.72
3434;BME280;1730;41.932;25.548;2023-04-07T11:23:40;99036.03;;;15.25;46.29
3434;BME280;1730;41.932;25.548;2023-04-07T11:26:07;99036.66;;;15.57;45.76
3434;BME280;1730;41.932;25.548;2023-04-07T11:31:11;99042.53;;;15.60;45.87
3434;BME280;1730;41.932;25.548;2023-04-07T11:33:40;99029.97;;;15.81;45.82
3434;BME280;1730;41.932;25.548;2023-04-07T11:36:07;98934.13;;;14.28;46.11
3434;BME280;1730;41.932;25.548;2023-04-07T11:38:36;98532.31;;;10.94;47.63
3434;BME280;1730;41.932;25.548;2023-04-07T11:41:13;99035.28;;;13.77;49.02
3434;BME280;1730;41.932;25.548;2023-04-07T11:43:40;98983.03;;;13.45;49.22
3434;BME280;1730;41.932;25.548;2023-04-07T11:46:09;98965.94;;;13.22;49.89
3434;BME280;1730;41.932;25.548;2023-04-07T11:48:37;99032.28;;;14.09;49.44
3434;BME280;1730;41.932;25.548;2023-04-07T11:51:04;98579.44;;;11.37;48.89
3434;BME280;1730;41.932;25.548;2023-04-07T11:53:35;99025.09;;;14.31;49.43
3434;BME280;1730;41.932;25.548;2023-04-07T11:56:23;98758.00;;;12.57;50.37
3434;BME280;1730;41.932;25.548;2023-04-07T11:58:54;98563.13;;;11.00;50.92
3434;BME280;1730;41.932;25.548;2023-04-07T12:01:42;99030.12;;;14.86;50.34
3434;BME280;1730;41.932;25.548;2023-04-07T12:04:12;99025.59;;;14.93;49.58
3434;BME280;1730;41.932;25.548;2023-04-07T12:06:38;98752.81;;;13.16;50.67
3434;BME280;1730;41.932;25.548;2023-04-07T12:09:06;99047.38;;;13.89;52.44
3434;BME280;1730;41.932;25.548;2023-04-07T12:11:33;99032.72;;;13.98;54.01
3434;BME280;1730;41.932;25.548;2023-04-07T12:13:59;99027.63;;;13.80;55.31
3434;BME280;1730;41.932;25.548;2023-04-07T12:16:25;99026.63;;;13.59;57.47
3434;BME280;1730;41.932;25.548;2023-04-07T12:18:51;99027.81;;;13.33;59.35
3434;BME280;1730;41.932;25.548;2023-04-07T12:21:18;99023.66;;;13.68;57.41
3434;BME280;1730;41.932;25.548;2023-04-07T12:23:46;99033.03;;;13.35;57.86
3434;BME280;1730;41.932;25.548;2023-04-07T12:26:12;99039.38;;;13.50;58.74
3434;BME280;1730;41.932;25.548;2023-04-07T12:33:43;98245.09;;;8.08;64.61
3434;BME280;1730;41.932;25.548;2023-04-07T12:36:08;98754.16;;;12.06;65.63
3434;BME280;1730;41.932;25.548;2023-04-07T12:38:36;98980.88;;;13.64;64.32
3434;BME280;1730;41.932;25.548;2023-04-07T12:41:03;98965.81;;;13.38;64.13
3434;BME280;1730;41.932;25.548;2023-04-07T12:46:04;99013.28;;;14.09;63.66
3434;BME280;1730;41.932;25.548;2023-04-07T12:48:30;99020.97;;;14.06;63.13
3434;BME280;1730;41.932;25.548;2023-04-07T12:50:57;98987.19;;;13.93;61.66
3434;BME280;1730;41.932;25.548;2023-04-07T12:53:22;98878.31;;;12.92;64.90
3434;BME280;1730;41.932;25.548;2023-04-07T12:55:48;98976.69;;;13.53;64.80
3434;BME280;1730;41.932;25.548;2023-04-07T12:58:18;99011.22;;;13.96;63.91
3434;BME280;1730;41.932;25.548;2023-04-07T13:00:44;99005.47;;;13.77;63.75
3434;BME280;1730;41.932;25.548;2023-04-07T13:03:11;99007.94;;;14.01;63.93
3434;BME280;1730;41.932;25.548;2023-04-07T13:05:37;99007.16;;;14.15;62.47
3434;BME280;1730;41.932;25.548;2023-04-07T13:08:03;98991.12;;;15.08;59.28
3434;BME280;1730;41.932;25.548;2023-04-07T13:10:29;98994.37;;;14.82;58.81
3434;BME280;1730;41.932;25.548;2023-04-07T13:12:56;98861.53;;;13.42;63.25
3434;BME280;1730;41.932;25.548;2023-04-07T13:15:21;98895.37;;;13.76;64.41
3434;BME280;1730;41.932;25.548;2023-04-07T13:17:59;98991.44;;;14.11;63.78
3434;BME280;1730;41.932;25.548;2023-04-07T13:20:26;98918.09;;;13.75;64.48
3434;BME280;1730;41.932;25.548;2023-04-07T13:22:53;98968.72;;;13.60;66.81
3434;BME280;1730;41.932;25.548;2023-04-07T13:25:20;98857.56;;;13.07;68.24
3434;BME280;1730;41.932;25.548;2023-04-07T13:27:45;98961.75;;;13.42;71.62
3434;BME280;1730;41.932;25.548;2023-04-07T13:30:12;99000.06;;;13.54;70.94
3434;BME280;1730;41.932;25.548;2023-04-07T13:32:37;98974.13;;;13.06;75.16
3434;BME280;1730;41.932;25.548;2023-04-07T13:35:03;98888.78;;;12.64;78.00
3434;BME280;1730;41.932;25.548;2023-04-07T13:37:29;98921.38;;;13.02;74.16
3434;BME280;1730;41.932;25.548;2023-04-07T13:39:58;98870.25;;;12.84;75.64
3434;BME280;1730;41.932;25.548;2023-04-07T13:42:23;98961.47;;;13.52;72.03
3434;BME280;1730;41.932;25.548;2023-04-07T13:44:50;98963.94;;;13.62;73.78
3434;BME280;1730;41.932;25.548;2023-04-07T13:47:19;98991.00;;;13.84;74.39
3434;BME280;1730;41.932;25.548;2023-04-07T13:49:49;98981.00;;;13.85;74.58
3434;BME280;1730;41.932;25.548;2023-04-07T13:52:19;98957.34;;;14.46;71.58